sensor_id;sensor_type;location;lat;lon;timestamp;temperature;humidity
41547;DHT22;27271;45.412;10.852;2023-05-10T00:00:51;14.10;99.90
41547;DHT22;27271;45.412;10.852;2023-05-10T00:04:13;14.20;60.20
41547;DHT22;27271;45.412;10.852;2023-05-10T00:07:35;14.20;1.00
41547;DHT22;27271;45.412;10.852;2023-05-10T00:10:57;14.30;99.90
41547;DHT22;27271;45.412;10.852;2023-05-10T00:14:19;14.30;99.90
41547;DHT22;27271;45.412;10.852;2023-05-10T00:17:41;14.30;99.90
41547;DHT22;27271;45.412;10.852;2023-05-10T00:21:04;14.30;99.90
41547;DHT22;27271;45.412;10.852;2023-05-10T00:24:26;14.40;99.90
41547;DHT22;27271;45.412;10.852;2023-05-10T00:27:48;14.40;99.20
41547;DHT22;27271;45.412;10.852;2023-05-10T00:31:11;14.40;7.20
41547;DHT22;27271;45.412;10.852;2023-05-10T00:34:33;14.50;99.90
41547;DHT22;27271;45.412;10.852;2023-05-10T00:37:55;14.60;99.90
41547;DHT22;27271;45.412;10.852;2023-05-10T00:41:17;14.70;1.00
41547;DHT22;27271;45.412;10.852;2023-05-10T00:44:40;14.60;16.10
41547;DHT22;27271;45.412;10.852;2023-05-10T00:48:03;14.50;99.90
41547;DHT22;27271;45.412;10.852;2023-05-10T00:51:25;14.40;99.90
41547;DHT22;27271;45.412;10.852;2023-05-10T00:54:48;14.30;99.90
41547;DHT22;27271;45.412;10.852;2023-05-10T00:58:10;14.20;99.90
41547;DHT22;27271;45.412;10.852;2023-05-10T01:01:35;14.00;99.90
41547;DHT22;27271;45.412;10.852;2023-05-10T01:04:57;13.90;99.90
41547;DHT22;27271;45.412;10.852;2023-05-10T01:08:19;13.80;99.90
41547;DHT22;27271;45.412;10.852;2023-05-10T01:11:42;13.70;99.90
41547;DHT22;27271;45.412;10.852;2023-05-10T01:15:06;13.50;99.90
41547;DHT22;27271;45.412;10.852;2023-05-10T01:18:30;13.40;99.90
41547;DHT22;27271;45.412;10.852;2023-05-10T01:36:39;13.00;99.90
41547;DHT22;27271;45.412;10.852;2023-05-10T01:40:10;12.90;99.90
41547;DHT22;27271;45.412;10.852;2023-05-10T01:43:53;12.80;1.00
41547;DHT22;27271;45.412;10.852;2023-05-10T01:47:24;12.80;1.00
41547;DHT22;27271;45.412;10.852;2023-05-10T01:50:51;12.70;1.00
41547;DHT22;27271;45.412;10.852;2023-05-10T01:54:14;12.70;1.00
41547;DHT22;27271;45.412;10.852;2023-05-10T01:57:39;12.60;99.90
41547;DHT22;27271;45.412;10.852;2023-05-10T02:01:03;12.50;3.20
41547;DHT22;27271;45.412;10.852;2023-05-10T02:04:27;12.50;1.00
41547;DHT22;27271;45.412;10.852;2023-05-10T02:07:50;12.40;1.00
41547;DHT22;27271;45.412;10.852;2023-05-10T02:11:13;12.20;99.90
41547;DHT22;27271;45.412;10.852;2023-05-10T02:14:36;12.10;99.90
41547;DHT22;27271;45.412;10.852;2023-05-10T02:18:00;12.00;99.90
41547;DHT22;27271;45.412;10.852;2023-05-10T02:21:24;11.90;1.00
41547;DHT22;27271;45.412;10.852;2023-05-10T02:24:47;11.90;1.00
41547;DHT22;27271;45.412;10.852;2023-05-10T02:28:12;11.90;1.00
41547;DHT22;27271;45.412;10.852;2023-05-10T02:31:35;11.80;9.90
41547;DHT22;27271;45.412;10.852;2023-05-10T02:35:00;11.80;52.80
41547;DHT22;27271;45.412;10.852;2023-05-10T02:38:24;11.80;99.90
41547;DHT22;27271;45.412;10.852;2023-05-10T02:41:49;11.70;99.90
41547;DHT22;27271;45.412;10.852;2023-05-10T02:45:13;11.70;99.90
41547;DHT22;27271;45.412;10.852;2023-05-10T02:48:37;11.80;99.90
41547;DHT22;27271;45.412;10.852;2023-05-10T02:52:01;11.70;99.90
41547;DHT22;27271;45.412;10.852;2023-05-10T02:55:31;11.70;99.90
41547;DHT22;27271;45.412;10.852;2023-05-10T02:58:55;11.70;99.90
41547;DHT22;27271;45.412;10.852;2023-05-10T03:02:18;11.70;99.90
41547;DHT22;27271;45.412;10.852;2023-05-10T03:05:40;11.70;99.90
41547;DHT22;27271;45.412;10.852;2023-05-10T03:09:02;11.60;99.90
41547;DHT22;27271;45.412;10.852;2023-05-10T03:16:15;11.60;99.90
41547;DHT22;27271;45.412;10.852;2023-05-10T03:19:56;11.60;99.90
41547;DHT22;27271;45.412;10.852;2023-05-10T03:23:43;11.60;99.90
41547;DHT22;27271;45.412;10.852;2023-05-10T03:27:06;11.60;99.90
41547;DHT22;27271;45.412;10.852;2023-05-10T03:30:29;11.60;99.90
41547;DHT22;27271;45.412;10.852;2023-05-10T03:33:52;11.60;99.90
41547;DHT22;27271;45.412;10.852;2023-05-10T03:37:19;11.50;99.90
41547;DHT22;27271;45.412;10.852;2023-05-10T03:40:41;11.40;99.90
41547;DHT22;27271;45.412;10.852;2023-05-10T03:44:03;11.50;99.90
41547;DHT22;27271;45.412;10.852;2023-05-10T03:47:25;11.40;99.90
41547;DHT22;27271;45.412;10.852;2023-05-10T03:50:47;11.40;99.90
41547;DHT22;27271;45.412;10.852;2023-05-10T03:54:11;11.40;99.90
41547;DHT22;27271;45.412;10.852;2023-05-10T03:57:33;11.30;99.90
41547;DHT22;27271;45.412;10.852;2023-05-10T04:00:56;11.30;99.90
41547;DHT22;27271;45.412;10.852;2023-05-10T04:04:18;11.30;99.90
41547;DHT22;27271;45.412;10.852;2023-05-10T04:07:42;11.30;99.90
41547;DHT22;27271;45.412;10.852;2023-05-10T04:11:10;11.30;99.90
41547;DHT22;27271;45.412;10.852;2023-05-10T04:14:32;11.30;99.90
41547;DHT22;27271;45.412;10.852;2023-05-10T04:17:55;11.30;99.90
41547;DHT22;27271;45.412;10.852;2023-05-10T04:21:17;11.30;99.90
41547;DHT22;27271;45.412;10.852;2023-05-10T04:24:39;11.30;99.90
41547;DHT22;27271;45.412;10.852;2023-05-10T04:28:01;11.30;99.90
41547;DHT22;27271;45.412;10.852;2023-05-10T04:31:23;11.30;99.90
41547;DHT22;27271;45.412;10.852;2023-05-10T04:34:46;11.20;99.90
41547;DHT22;27271;45.412;10.852;2023-05-10T04:38:08;11.20;99.90
41547;DHT22;27271;45.412;10.852;2023-05-10T04:41:30;11.20;99.90
41547;DHT22;27271;45.412;10.852;2023-05-10T04:44:52;11.20;99.90
41547;DHT22;27271;45.412;10.852;2023-05-10T04:48:15;11.30;99.90
41547;DHT22;27271;45.412;10.852;2023-05-10T04:51:37;11.30;99.90
41547;DHT22;27271;45.412;10.852;2023-05-10T04:55:00;11.40;99.90
41547;DHT22;27271;45.412;10.852;2023-05-10T04:58:22;11.40;99.90
41547;DHT22;27271;45.412;10.852;2023-05-10T05:01:44;11.30;99.90
41547;DHT22;27271;45.412;10.852;2023-05-10T05:05:06;11.30;99.90
41547;DHT22;27271;45.412;10.852;2023-05-10T05:08:29;11.30;99.90
41547;DHT22;27271;45.412;10.852;2023-05-10T05:11:51;11.30;99.90
41547;DHT22;27271;45.412;10.852;2023-05-10T05:15:13;11.30;99.90
41547;DHT22;27271;45.412;10.852;2023-05-10T05:18:36;11.20;99.90
41547;DHT22;27271;45.412;10.852;2023-05-10T05:21:58;11.20;99.90
41547;DHT22;27271;45.412;10.852;2023-05-10T05:25:20;11.10;99.90
41547;DHT22;27271;45.412;10.852;2023-05-10T05:28:43;11.20;99.90
41547;DHT22;27271;45.412;10.852;2023-05-10T05:32:05;11.20;99.90
41547;DHT22;27271;45.412;10.852;2023-05-10T05:35:27;11.20;99.90
41547;DHT22;27271;45.412;10.852;2023-05-10T05:38:49;11.20;99.90
41547;DHT22;27271;45.412;10.852;2023-05-10T05:42:12;11.20;99.90
41547;DHT22;27271;45.412;10.852;2023-05-10T05:45:34;11.20;99.90
41547;DHT22;27271;45.412;10.852;2023-05-10T05:48:56;11.30;99.90
41547;DHT22;27271;45.412;10.852;2023-05-10T05:52:18;11.30;99.90
41547;DHT22;27271;45.412;10.852;2023-05-10T05:55:54;11.40;99.90
41547;DHT22;27271;45.412;10.852;2023-05-10T05:59:16;11.40;99.90
41547;DHT22;27271;45.412;10.852;2023-05-10T06:02:38;11.30;99.90
41547;DHT22;27271;45.412;10.852;2023-05-10T06:06:02;11.40;99.90
41547;DHT22;27271;45.412;10.852;2023-05-10T06:09:24;11.50;99.90
41547;DHT22;27271;45.412;10.852;2023-05-10T06:12:46;11.30;99.90
41547;DHT22;27271;45.412;10.852;2023-05-10T06:16:08;11.30;99.90
41547;DHT22;27271;45.412;10.852;2023-05-10T06:19:30;11.30;99.90
41547;DHT22;27271;45.412;10.852;2023-05-10T06:22:52;11.30;99.90
41547;DHT22;27271;45.412;10.852;2023-05-10T06:26:14;11.30;99.90
41547;DHT22;27271;45.412;10.852;2023-05-10T06:29:36;11.20;99.90
41547;DHT22;27271;45.412;10.852;2023-05-10T06:32:58;11.20;99.90
41547;DHT22;27271;45.412;10.852;2023-05-10T06:36:21;11.20;99.90
41547;DHT22;27271;45.412;10.852;2023-05-10T06:39:43;11.20;99.90
41547;DHT22;27271;45.412;10.852;2023-05-10T06:43:05;11.20;99.90
41547;DHT22;27271;45.412;10.852;2023-05-10T06:46:27;11.10;99.90
41547;DHT22;27271;45.412;10.852;2023-05-10T06:49:49;11.20;99.90
41547;DHT22;27271;45.412;10.852;2023-05-10T06:53:11;11.10;99.90
41547;DHT22;27271;45.412;10.852;2023-05-10T06:56:33;11.10;99.90
41547;DHT22;27271;45.412;10.852;2023-05-10T06:59:55;11.10;99.90
41547;DHT22;27271;45.412;10.852;2023-05-10T07:03:18;11.10;99.90
41547;DHT22;27271;45.412;10.852;2023-05-10T07:06:40;11.10;99.90
41547;DHT22;27271;45.412;10.852;2023-05-10T07:10:02;11.10;99.90
41547;DHT22;27271;45.412;10.852;2023-05-10T07:13:24;11.10;99.90
41547;DHT22;27271;45.412;10.852;2023-05-10T07:16:46;11.10;99.90
41547;DHT22;27271;45.412;10.852;2023-05-10T07:20:09;11.10;99.90
41547;DHT22;27271;45.412;10.852;2023-05-10T07:23:31;11.10;99.90
41547;DHT22;27271;45.412;10.852;2023-05-10T07:26:53;11.10;99.90
41547;DHT22;27271;45.412;10.852;2023-05-10T07:30:15;11.10;99.90
41547;DHT22;27271;45.412;10.852;2023-05-10T07:33:37;11.10;99.90
41547;DHT22;27271;45.412;10.852;2023-05-10T07:36:59;11.00;99.90
41547;DHT22;27271;45.412;10.852;2023-05-10T07:40:21;11.10;99.90
41547;DHT22;27271;45.412;10.852;2023-05-10T07:43:43;11.00;99.90
41547;DHT22;27271;45.412;10.852;2023-05-10T07:47:05;11.10;99.90
41547;DHT22;27271;45.412;10.852;2023-05-10T07:50:28;11.00;99.90
41547;DHT22;27271;45.412;10.852;2023-05-10T07:53:50;11.10;99.90
41547;DHT22;27271;45.412;10.852;2023-05-10T07:57:12;11.00;99.90
41547;DHT22;27271;45.412;10.852;2023-05-10T08:00:36;11.10;99.90
41547;DHT22;27271;45.412;10.852;2023-05-10T08:04:01;11.00;99.90
41547;DHT22;27271;45.412;10.852;2023-05-10T08:07:24;11.00;99.90
41547;DHT22;27271;45.412;10.852;2023-05-10T08:10:46;11.00;99.90
41547;DHT22;27271;45.412;10.852;2023-05-10T08:14:08;11.00;99.90
41547;DHT22;27271;45.412;10.852;2023-05-10T08:17:30;11.00;99.90
41547;DHT22;27271;45.412;10.852;2023-05-10T08:20:52;11.00;99.90
41547;DHT22;27271;45.412;10.852;2023-05-10T08:24:14;11.00;99.90
41547;DHT22;27271;45.412;10.852;2023-05-10T08:27:37;11.20;99.90
41547;DHT22;27271;45.412;10.852;2023-05-10T08:30:59;11.20;99.90
41547;DHT22;27271;45.412;10.852;2023-05-10T08:34:21;11.30;99.90
41547;DHT22;27271;45.412;10.852;2023-05-10T08:37:43;11.40;99.90
41547;DHT22;27271;45.412;10.852;2023-05-10T08:41:05;11.40;99.90
41547;DHT22;27271;45.412;10.852;2023-05-10T08:44:28;11.40;99.90
41547;DHT22;27271;45.412;10.852;2023-05-10T08:47:52;11.60;99.90
41547;DHT22;27271;45.412;10.852;2023-05-10T08:51:18;11.50;99.90
41547;DHT22;27271;45.412;10.852;2023-05-10T08:54:41;11.60;99.90
41547;DHT22;27271;45.412;10.852;2023-05-10T08:58:04;11.40;99.90
41547;DHT22;27271;45.412;10.852;2023-05-10T09:01:27;11.60;99.90
41547;DHT22;27271;45.412;10.852;2023-05-10T09:04:49;11.50;99.90
41547;DHT22;27271;45.412;10.852;2023-05-10T09:08:12;11.60;99.90
41547;DHT22;27271;45.412;10.852;2023-05-10T09:11:34;11.60;99.90
41547;DHT22;27271;45.412;10.852;2023-05-10T09:14:58;11.70;99.90
41547;DHT22;27271;45.412;10.852;2023-05-10T09:18:21;11.90;99.90
41547;DHT22;27271;45.412;10.852;2023-05-10T09:21:43;12.00;99.90
41547;DHT22;27271;45.412;10.852;2023-05-10T09:25:07;12.20;99.90
41547;DHT22;27271;45.412;10.852;2023-05-10T09:32:14;12.50;99.90
41547;DHT22;27271;45.412;10.852;2023-05-10T09:35:36;12.70;99.90
41547;DHT22;27271;45.412;10.852;2023-05-10T09:39:02;12.60;99.90
41547;DHT22;27271;45.412;10.852;2023-05-10T09:42:24;12.50;99.90
41547;DHT22;27271;45.412;10.852;2023-05-10T09:45:48;12.60;99.90
41547;DHT22;27271;45.412;10.852;2023-05-10T09:49:14;12.50;99.90
41547;DHT22;27271;45.412;10.852;2023-05-10T09:56:12;12.60;99.90
41547;DHT22;27271;45.412;10.852;2023-05-10T09:59:34;12.70;99.90
41547;DHT22;27271;45.412;10.852;2023-05-10T10:02:59;12.80;99.90
41547;DHT22;27271;45.412;10.852;2023-05-10T10:06:21;12.90;99.90
41547;DHT22;27271;45.412;10.852;2023-05-10T10:09:51;12.90;99.90
41547;DHT22;27271;45.412;10.852;2023-05-10T10:13:13;12.80;99.90
41547;DHT22;27271;45.412;10.852;2023-05-10T10:16:36;12.70;99.90
41547;DHT22;27271;45.412;10.852;2023-05-10T10:20:10;12.70;99.90
41547;DHT22;27271;45.412;10.852;2023-05-10T10:23:33;13.00;99.90
41547;DHT22;27271;45.412;10.852;2023-05-10T10:26:59;13.00;99.90
41547;DHT22;27271;45.412;10.852;2023-05-10T10:30:42;13.10;99.90
41547;DHT22;27271;45.412;10.852;2023-05-10T10:34:17;13.20;99.90
41547;DHT22;27271;45.412;10.852;2023-05-10T10:37:50;13.20;99.90
41547;DHT22;27271;45.412;10.852;2023-05-10T10:41:32;13.00;99.90
41547;DHT22;27271;45.412;10.852;2023-05-10T10:45:12;13.10;99.90
41547;DHT22;27271;45.412;10.852;2023-05-10T10:48:34;13.10;99.90
41547;DHT22;27271;45.412;10.852;2023-05-10T10:55:49;13.20;99.90
41547;DHT22;27271;45.412;10.852;2023-05-10T10:59:11;13.20;99.90
41547;DHT22;27271;45.412;10.852;2023-05-10T11:02:45;13.10;99.90
41547;DHT22;27271;45.412;10.852;2023-05-10T11:06:16;13.10;99.90
41547;DHT22;27271;45.412;10.852;2023-05-10T11:09:50;13.20;99.90
41547;DHT22;27271;45.412;10.852;2023-05-10T11:13:12;13.30;99.90
41547;DHT22;27271;45.412;10.852;2023-05-10T11:16:44;13.30;99.90
41547;DHT22;27271;45.412;10.852;2023-05-10T11:20:09;13.40;99.90
41547;DHT22;27271;45.412;10.852;2023-05-10T11:27:09;13.50;99.90
41547;DHT22;27271;45.412;10.852;2023-05-10T11:30:32;13.60;99.90
41547;DHT22;27271;45.412;10.852;2023-05-10T11:33:56;13.50;99.90
41547;DHT22;27271;45.412;10.852;2023-05-10T11:37:19;13.50;99.90
41547;DHT22;27271;45.412;10.852;2023-05-10T11:40:42;13.50;99.90
41547;DHT22;27271;45.412;10.852;2023-05-10T11:44:04;13.60;99.90
41547;DHT22;27271;45.412;10.852;2023-05-10T11:47:26;13.50;99.90
41547;DHT22;27271;45.412;10.852;2023-05-10T11:50:48;13.60;99.90
41547;DHT22;27271;45.412;10.852;2023-05-10T11:54:11;13.40;99.90
41547;DHT22;27271;45.412;10.852;2023-05-10T11:57:34;13.30;99.90
41547;DHT22;27271;45.412;10.852;2023-05-10T12:00:58;13.10;99.90
41547;DHT22;27271;45.412;10.852;2023-05-10T12:04:21;13.20;99.90
41547;DHT22;27271;45.412;10.852;2023-05-10T12:07:43;13.30;99.90
41547;DHT22;27271;45.412;10.852;2023-05-10T12:11:07;13.30;99.90
41547;DHT22;27271;45.412;10.852;2023-05-10T12:14:34;13.40;99.90
41547;DHT22;27271;45.412;10.852;2023-05-10T12:17:57;13.40;99.90
41547;DHT22;27271;45.412;10.852;2023-05-10T12:21:20;13.20;99.90
41547;DHT22;27271;45.412;10.852;2023-05-10T12:24:45;13.30;99.90
41547;DHT22;27271;45.412;10.852;2023-05-10T12:28:08;13.50;99.90
41547;DHT22;27271;45.412;10.852;2023-05-10T12:31:31;13.50;99.90
41547;DHT22;27271;45.412;10.852;2023-05-10T12:34:53;13.60;99.90
41547;DHT22;27271;45.412;10.852;2023-05-10T12:38:29;13.40;99.90
41547;DHT22;27271;45.412;10.852;2023-05-10T12:41:53;13.20;99.90
41547;DHT22;27271;45.412;10.852;2023-05-10T12:45:17;13.20;99.90
41547;DHT22;27271;45.412;10.852;2023-05-10T12:48:41;13.20;99.90
41547;DHT22;27271;45.412;10.852;2023-05-10T12:52:03;13.20;99.90
41547;DHT22;27271;45.412;10.852;2023-05-10T12:55:26;13.40;99.90
41547;DHT22;27271;45.412;10.852;2023-05-10T12:58:48;13.20;99.90
41547;DHT22;27271;45.412;10.852;2023-05-10T13:02:10;13.10;99.90
41547;DHT22;27271;45.412;10.852;2023-05-10T13:05:35;13.20;99.90
41547;DHT22;27271;45.412;10.852;2023-05-10T13:08:58;13.20;99.90
41547;DHT22;27271;45.412;10.852;2023-05-10T13:12:20;13.20;99.90
41547;DHT22;27271;45.412;10.852;2023-05-10T13:15:42;13.30;99.90
41547;DHT22;27271;45.412;10.852;2023-05-10T13:19:07;13.40;99.90
41547;DHT22;27271;45.412;10.852;2023-05-10T13:22:29;13.60;99.90
41547;DHT22;27271;45.412;10.852;2023-05-10T13:26:01;13.50;99.90
41547;DHT22;27271;45.412;10.852;2023-05-10T13:29:23;13.40;99.90
41547;DHT22;27271;45.412;10.852;2023-05-10T13:32:45;13.50;99.90
41547;DHT22;27271;45.412;10.852;2023-05-10T13:36:07;13.70;99.90
41547;DHT22;27271;45.412;10.852;2023-05-10T13:39:29;13.90;99.90
41547;DHT22;27271;45.412;10.852;2023-05-10T13:42:55;14.00;99.90
41547;DHT22;27271;45.412;10.852;2023-05-10T13:46:16;13.90;99.90
41547;DHT22;27271;45.412;10.852;2023-05-10T13:49:39;13.90;99.90
41547;DHT22;27271;45.412;10.852;2023-05-10T13:53:01;13.80;99.90
41547;DHT22;27271;45.412;10.852;2023-05-10T13:56:23;13.90;99.90
41547;DHT22;27271;45.412;10.852;2023-05-10T13:59:45;14.00;99.90
41547;DHT22;27271;45.412;10.852;2023-05-10T14:03:07;14.20;99.90
41547;DHT22;27271;45.412;10.852;2023-05-10T14:06:33;14.20;99.90
41547;DHT22;27271;45.412;10.852;2023-05-10T14:09:55;14.30;99.90
41547;DHT22;27271;45.412;10.852;2023-05-10T14:13:17;14.30;99.90
41547;DHT22;27271;45.412;10.852;2023-05-10T14:16:43;14.20;99.90
41547;DHT22;27271;45.412;10.852;2023-05-10T14:20:06;14.00;99.90
41547;DHT22;27271;45.412;10.852;2023-05-10T14:23:29;14.00;99.90
41547;DHT22;27271;45.412;10.852;2023-05-10T14:26:51;14.00;99.90
41547;DHT22;27271;45.412;10.852;2023-05-10T14:30:15;14.00;99.90
41547;DHT22;27271;45.412;10.852;2023-05-10T14:33:37;14.10;99.90
41547;DHT22;27271;45.412;10.852;2023-05-10T14:39:44;14.10;99.90
41547;DHT22;27271;45.412;10.852;2023-05-10T14:43:26;14.00;99.90
41547;DHT22;27271;45.412;10.852;2023-05-10T14:46:49;13.90;99.90
41547;DHT22;27271;45.412;10.852;2023-05-10T14:50:11;13.80;99.90
41547;DHT22;27271;45.412;10.852;2023-05-10T14:53:45;13.50;99.90
41547;DHT22;27271;45.412;10.852;2023-05-10T14:57:07;13.60;99.90
41547;DHT22;27271;45.412;10.852;2023-05-10T15:00:29;13.70;99.90
41547;DHT22;27271;45.412;10.852;2023-05-10T15:03:52;13.80;99.90
41547;DHT22;27271;45.412;10.852;2023-05-10T15:07:14;13.80;99.90
41547;DHT22;27271;45.412;10.852;2023-05-10T15:10:38;13.80;99.90
41547;DHT22;27271;45.412;10.852;2023-05-10T15:14:01;13.80;99.90
41547;DHT22;27271;45.412;10.852;2023-05-10T15:17:23;13.80;99.90
41547;DHT22;27271;45.412;10.852;2023-05-10T15:20:45;13.70;99.90
41547;DHT22;27271;45.412;10.852;2023-05-10T15:24:08;13.70;99.90
41547;DHT22;27271;45.412;10.852;2023-05-10T15:27:30;13.70;99.90
41547;DHT22;27271;45.412;10.852;2023-05-10T15:30:52;13.70;99.90
41547;DHT22;27271;45.412;10.852;2023-05-10T15:34:15;13.60;99.90
41547;DHT22;27271;45.412;10.852;2023-05-10T15:37:37;13.60;99.90
41547;DHT22;27271;45.412;10.852;2023-05-10T15:40:59;13.50;99.90
41547;DHT22;27271;45.412;10.852;2023-05-10T15:44:22;13.50;99.90
41547;DHT22;27271;45.412;10.852;2023-05-10T15:47:44;13.50;99.90
41547;DHT22;27271;45.412;10.852;2023-05-10T15:51:06;13.50;99.90
41547;DHT22;27271;45.412;10.852;2023-05-10T15:54:28;13.40;99.90
41547;DHT22;27271;45.412;10.852;2023-05-10T15:57:50;13.40;99.90
41547;DHT22;27271;45.412;10.852;2023-05-10T16:01:12;13.40;99.90
41547;DHT22;27271;45.412;10.852;2023-05-10T16:04:34;13.40;99.90
41547;DHT22;27271;45.412;10.852;2023-05-10T16:07:56;13.30;99.90
41547;DHT22;27271;45.412;10.852;2023-05-10T16:11:18;13.30;99.90
41547;DHT22;27271;45.412;10.852;2023-05-10T16:14:40;13.30;99.90
41547;DHT22;27271;45.412;10.852;2023-05-10T16:18:02;13.30;99.90
41547;DHT22;27271;45.412;10.852;2023-05-10T16:21:24;13.30;99.90
41547;DHT22;27271;45.412;10.852;2023-05-10T16:24:47;13.30;99.90
41547;DHT22;27271;45.412;10.852;2023-05-10T16:28:09;13.30;99.90
41547;DHT22;27271;45.412;10.852;2023-05-10T16:31:31;13.30;99.90
41547;DHT22;27271;45.412;10.852;2023-05-10T16:34:53;13.30;99.90
41547;DHT22;27271;45.412;10.852;2023-05-10T16:38:16;13.30;99.90
41547;DHT22;27271;45.412;10.852;2023-05-10T16:41:38;13.20;99.90
41547;DHT22;27271;45.412;10.852;2023-05-10T16:45:00;13.20;99.90
41547;DHT22;27271;45.412;10.852;2023-05-10T16:48:28;13.30;99.90
41547;DHT22;27271;45.412;10.852;2023-05-10T16:51:50;13.30;99.90
41547;DHT22;27271;45.412;10.852;2023-05-10T16:55:12;13.30;99.90
41547;DHT22;27271;45.412;10.852;2023-05-10T16:58:34;13.30;99.90
41547;DHT22;27271;45.412;10.852;2023-05-10T17:01:56;13.20;99.90
41547;DHT22;27271;45.412;10.852;2023-05-10T17:05:18;13.30;99.90
41547;DHT22;27271;45.412;10.852;2023-05-10T17:08:40;13.20;99.90
41547;DHT22;27271;45.412;10.852;2023-05-10T17:12:03;13.30;99.90
41547;DHT22;27271;45.412;10.852;2023-05-10T17:15:25;13.30;99.90
41547;DHT22;27271;45.412;10.852;2023-05-10T17:18:48;13.20;99.90
41547;DHT22;27271;45.412;10.852;2023-05-10T17:22:11;13.20;99.90
41547;DHT22;27271;45.412;10.852;2023-05-10T17:25:34;13.20;99.90
41547;DHT22;27271;45.412;10.852;2023-05-10T17:28:57;13.10;99.90
41547;DHT22;27271;45.412;10.852;2023-05-10T17:32:19;13.10;99.90
41547;DHT22;27271;45.412;10.852;2023-05-10T17:35:44;13.00;99.90
41547;DHT22;27271;45.412;10.852;2023-05-10T17:39:07;13.00;99.90
41547;DHT22;27271;45.412;10.852;2023-05-10T17:42:29;13.00;99.90
41547;DHT22;27271;45.412;10.852;2023-05-10T17:45:52;13.00;99.90
41547;DHT22;27271;45.412;10.852;2023-05-10T17:49:14;13.00;99.90
41547;DHT22;27271;45.412;10.852;2023-05-10T17:52:36;13.00;99.90
41547;DHT22;27271;45.412;10.852;2023-05-10T17:56:03;12.90;99.90
41547;DHT22;27271;45.412;10.852;2023-05-10T18:00:00;12.90;99.90
41547;DHT22;27271;45.412;10.852;2023-05-10T18:04:34;12.90;99.90
41547;DHT22;27271;45.412;10.852;2023-05-10T18:08:42;12.80;99.90
41547;DHT22;27271;45.412;10.852;2023-05-10T18:16:02;12.70;99.90
41547;DHT22;27271;45.412;10.852;2023-05-10T18:19:26;12.70;99.90
41547;DHT22;27271;45.412;10.852;2023-05-10T18:22:48;12.70;99.90
41547;DHT22;27271;45.412;10.852;2023-05-10T18:26:10;12.70;99.90
41547;DHT22;27271;45.412;10.852;2023-05-10T18:29:33;12.70;99.90
41547;DHT22;27271;45.412;10.852;2023-05-10T18:32:55;12.70;99.90
41547;DHT22;27271;45.412;10.852;2023-05-10T18:36:18;12.60;99.90
41547;DHT22;27271;45.412;10.852;2023-05-10T18:39:40;12.60;99.90
41547;DHT22;27271;45.412;10.852;2023-05-10T18:43:03;12.60;99.90
41547;DHT22;27271;45.412;10.852;2023-05-10T18:46:25;12.50;99.90
41547;DHT22;27271;45.412;10.852;2023-05-10T18:49:47;12.40;99.90
41547;DHT22;27271;45.412;10.852;2023-05-10T18:53:09;12.40;99.90
41547;DHT22;27271;45.412;10.852;2023-05-10T18:56:31;12.40;99.90
41547;DHT22;27271;45.412;10.852;2023-05-10T18:59:54;12.30;99.90
41547;DHT22;27271;45.412;10.852;2023-05-10T19:03:16;12.30;99.90
41547;DHT22;27271;45.412;10.852;2023-05-10T19:06:38;12.30;99.90
41547;DHT22;27271;45.412;10.852;2023-05-10T19:10:02;12.30;99.90
41547;DHT22;27271;45.412;10.852;2023-05-10T19:13:24;12.30;99.90
41547;DHT22;27271;45.412;10.852;2023-05-10T19:16:48;12.30;99.90
41547;DHT22;27271;45.412;10.852;2023-05-10T19:20:11;12.20;99.90
41547;DHT22;27271;45.412;10.852;2023-05-10T19:23:33;12.20;99.90
41547;DHT22;27271;45.412;10.852;2023-05-10T19:26:56;12.10;99.90
41547;DHT22;27271;45.412;10.852;2023-05-10T19:30:18;12.10;99.90
41547;DHT22;27271;45.412;10.852;2023-05-10T19:33:40;12.10;99.90
41547;DHT22;27271;45.412;10.852;2023-05-10T19:37:02;12.10;99.90
41547;DHT22;27271;45.412;10.852;2023-05-10T19:40:24;12.10;99.90
41547;DHT22;27271;45.412;10.852;2023-05-10T19:43:46;12.00;99.90
41547;DHT22;27271;45.412;10.852;2023-05-10T19:47:08;12.00;99.90
41547;DHT22;27271;45.412;10.852;2023-05-10T19:50:32;12.00;99.90
41547;DHT22;27271;45.412;10.852;2023-05-10T19:53:54;12.00;99.90
41547;DHT22;27271;45.412;10.852;2023-05-10T19:57:16;12.00;99.90
41547;DHT22;27271;45.412;10.852;2023-05-10T20:00:38;11.90;99.90
41547;DHT22;27271;45.412;10.852;2023-05-10T20:04:00;12.00;99.90
41547;DHT22;27271;45.412;10.852;2023-05-10T20:07:22;11.90;99.90
41547;DHT22;27271;45.412;10.852;2023-05-10T20:10:44;11.90;99.90
41547;DHT22;27271;45.412;10.852;2023-05-10T20:14:07;11.90;99.90
41547;DHT22;27271;45.412;10.852;2023-05-10T20:17:29;11.90;99.90
41547;DHT22;27271;45.412;10.852;2023-05-10T20:20:53;11.80;99.90
41547;DHT22;27271;45.412;10.852;2023-05-10T20:24:15;11.80;99.90
41547;DHT22;27271;45.412;10.852;2023-05-10T20:27:37;11.80;99.90
41547;DHT22;27271;45.412;10.852;2023-05-10T20:30:59;11.80;99.90
41547;DHT22;27271;45.412;10.852;2023-05-10T20:34:22;11.80;99.90
41547;DHT22;27271;45.412;10.852;2023-05-10T20:37:44;11.80;99.90
41547;DHT22;27271;45.412;10.852;2023-05-10T20:41:09;11.80;99.90
41547;DHT22;27271;45.412;10.852;2023-05-10T20:44:31;11.80;99.90
41547;DHT22;27271;45.412;10.852;2023-05-10T20:47:53;11.80;99.90
41547;DHT22;27271;45.412;10.852;2023-05-10T20:51:15;11.80;99.90
41547;DHT22;27271;45.412;10.852;2023-05-10T20:54:37;11.70;99.90
41547;DHT22;27271;45.412;10.852;2023-05-10T20:57:59;11.70;99.90
41547;DHT22;27271;45.412;10.852;2023-05-10T21:01:24;11.70;99.90
41547;DHT22;27271;45.412;10.852;2023-05-10T21:04:46;11.70;99.90
41547;DHT22;27271;45.412;10.852;2023-05-10T21:08:08;11.70;99.90
41547;DHT22;27271;45.412;10.852;2023-05-10T21:11:32;11.70;99.90
41547;DHT22;27271;45.412;10.852;2023-05-10T21:14:56;11.60;99.90
41547;DHT22;27271;45.412;10.852;2023-05-10T21:18:18;11.70;99.90
41547;DHT22;27271;45.412;10.852;2023-05-10T21:21:41;11.70;99.90
41547;DHT22;27271;45.412;10.852;2023-05-10T21:25:03;11.70;99.90
41547;DHT22;27271;45.412;10.852;2023-05-10T21:28:25;11.70;99.90
41547;DHT22;27271;45.412;10.852;2023-05-10T21:31:47;11.70;99.90
41547;DHT22;27271;45.412;10.852;2023-05-10T21:35:09;11.70;99.90
41547;DHT22;27271;45.412;10.852;2023-05-10T21:38:31;11.60;99.90
41547;DHT22;27271;45.412;10.852;2023-05-10T21:41:53;11.60;99.90
41547;DHT22;27271;45.412;10.852;2023-05-10T21:45:16;11.60;99.90
41547;DHT22;27271;45.412;10.852;2023-05-10T21:48:38;11.60;99.90